Portada
METAR-TAF:

METAR-TAF

Aeroports :

Tongatapu, Tonga

latitud: 21-14S, longitud: 175-09W, altitud: 38 m

Observació

L'informe es va fer fa 1 hora i 3 minuts, a les 01:00 UTC
Vent 13 kt del Sud/Sud-Est
Temperatura 25°C
Humitat 74%
Pressió 1017 hPa
Visibilitat: 0700 m
Escasses núvols a una alçada de 1500 ft
fum

METAR: NFTF 160100Z 16013KT 9999 0700SW FU FEW015 25/20 Q1017 RMK SMOKE TO SW

Hora: 16:03 (02:03 UTC)

Pronòstic

L'informe es va fer fa 2 hores i 51 minuts, a les 23:12 UTC
Pronòstic vàlid del 16 a les 00 UTC al 16 a les 24 UTC
Vent 10 kt del Sud/Sud-Est
Visibilitat 10 km o més
Núvols disperses a una alçada de 1800 ft

TAF: NFTF 152312Z 1600/1624 15010KT 9999 SCT018

Observacions i pronòstics meteorològics de més de 4000 aeroports (METAR i TAF).

Les estacions disponibles són els punts grocs i vermells al mapa.

Posi el ratolí al punt desitjat per veure el nom de l'estació.

Feu clic per veure les observacions i els pronòstics meteorològics.

Per canviar el mapa: feu clic els botons verds amb una creu de color negre per apropar; al botó verd amb un guió per allunyar la imatge; o en les fletxes verdes per a mapes adjacents.


METAR-TAF: